createdAt,value
2019-04-07T00:01:32.082Z,72.32
2019-04-07T00:04:02.861Z,72.59
2019-04-07T00:06:33.154Z,72.72
2019-04-07T00:09:03.891Z,72.93
2019-04-07T00:11:34.924Z,72.83
2019-04-07T00:14:07.134Z,72.89
2019-04-07T00:16:40.303Z,73.21
2019-04-07T00:19:12.576Z,72.95
2019-04-07T00:21:42.892Z,73.19
2019-04-07T00:24:13.617Z,73.32
2019-04-07T00:26:44.738Z,73.59
2019-04-07T00:29:15.571Z,73.66
2019-04-07T00:31:46.248Z,73.60
2019-04-07T00:34:16.647Z,73.69
2019-04-07T00:36:46.903Z,73.71
2019-04-07T00:39:17.965Z,73.90
2019-04-07T00:41:48.403Z,73.97
2019-04-07T00:44:18.973Z,73.93
2019-04-07T00:46:49.891Z,74.11
2019-04-07T00:49:21.251Z,74.14
2019-04-07T00:51:52.952Z,74.71
2019-04-07T00:54:23.840Z,74.71
2019-04-07T00:56:54.490Z,74.30
2019-04-07T00:59:27.051Z,74.91
2019-04-07T01:01:57.999Z,74.79
2019-04-07T01:04:29.737Z,74.94
2019-04-07T01:07:00.241Z,75.15
2019-04-07T01:09:31.063Z,74.78
2019-04-07T01:12:02.855Z,74.86
2019-04-07T01:14:33.620Z,74.91
2019-04-07T01:17:04.122Z,75.09
2019-04-07T01:19:34.482Z,75.07
2019-04-07T01:22:05.377Z,75.29
2019-04-07T01:24:36.397Z,75.49
2019-04-07T01:27:06.830Z,75.34
2019-04-07T01:29:37.090Z,74.73
2019-04-07T01:32:08.586Z,74.52
2019-04-07T01:34:39.619Z,74.88
2019-04-07T01:37:09.941Z,75.14
2019-04-07T01:39:40.299Z,75.21
2019-04-07T01:42:16.547Z,75.51
2019-04-07T01:45:05.159Z,75.53
2019-04-07T01:47:50.824Z,75.31
2019-04-07T01:50:38.648Z,75.21
2019-04-07T01:53:33.596Z,75.27
2019-04-07T01:56:26.144Z,75.33
2019-04-07T01:59:03.693Z,75.38
2019-04-07T02:01:55.616Z,75.14
2019-04-07T02:04:44.833Z,75.00
2019-04-07T02:07:32.872Z,74.29
2019-04-07T02:10:25.224Z,74.64
2019-04-07T02:13:18.713Z,74.78
2019-04-07T02:16:15.663Z,75.09
2019-04-07T02:19:03.589Z,75.59
2019-04-07T02:22:04.783Z,76.39
2019-04-07T02:24:57.499Z,76.69
2019-04-07T02:27:45.867Z,76.32
2019-04-07T02:30:25.749Z,77.10
2019-04-07T02:33:13.275Z,77.29
2019-04-07T02:36:16.068Z,77.51
2019-04-07T02:38:45.584Z,77.65
2019-04-07T02:41:21.109Z,77.67
2019-04-07T02:44:16.287Z,77.85
2019-04-07T02:47:06.388Z,77.49
2019-04-07T02:50:14.176Z,77.53
2019-04-07T02:53:13.382Z,77.43
2019-04-07T02:55:55.436Z,77.60
2019-04-07T02:58:37.968Z,77.00
2019-04-07T03:01:18.297Z,76.60
2019-04-07T03:04:09.459Z,76.61
2019-04-07T03:06:53.572Z,76.16
2019-04-07T03:09:47.425Z,76.72
2019-04-07T03:12:41.417Z,76.37
2019-04-07T03:15:21.514Z,76.30
2019-04-07T03:17:59.327Z,76.16
2019-04-07T03:20:45.468Z,76.01
2019-04-07T03:23:25.289Z,75.89
2019-04-07T03:26:20.527Z,75.83
2019-04-07T03:29:08.550Z,75.87
2019-04-07T03:32:08.500Z,75.61
2019-04-07T03:34:44.992Z,75.67
2019-04-07T03:37:39.749Z,74.95
2019-04-07T03:40:30.511Z,74.69
2019-04-07T03:43:09.453Z,75.30
2019-04-07T03:45:55.482Z,75.41
2019-04-07T03:48:32.935Z,75.00
2019-04-07T03:51:08.953Z,75.20
2019-04-07T03:53:48.862Z,75.38
2019-04-07T03:56:38.271Z,75.59
2019-04-07T03:59:27.596Z,75.62
2019-04-07T04:02:11.012Z,75.56
2019-04-07T04:05:05.166Z,75.07
2019-04-07T04:07:44.208Z,75.32
2019-04-07T04:10:42.640Z,75.28
2019-04-07T04:13:23.381Z,75.83
2019-04-07T04:15:56.867Z,76.12
2019-04-07T04:18:28.641Z,75.58
2019-04-07T04:20:59.556Z,75.03
2019-04-07T04:23:30.287Z,74.63
2019-04-07T04:26:00.940Z,75.13
2019-04-07T04:28:31.836Z,74.76
2019-04-07T04:31:02.067Z,74.33
2019-04-07T04:33:33.029Z,74.74
2019-04-07T04:36:03.389Z,74.50
2019-04-07T04:38:33.735Z,74.51
2019-04-07T04:41:04.833Z,75.08
2019-04-07T04:43:36.045Z,75.53
2019-04-07T04:46:10.657Z,75.41
2019-04-07T04:48:38.960Z,75.19
2019-04-07T04:51:09.818Z,74.62
2019-04-07T04:53:39.987Z,74.69
2019-04-07T04:56:10.723Z,74.93
2019-04-07T04:58:40.946Z,74.77
2019-04-07T05:01:11.883Z,74.74
2019-04-07T05:03:42.829Z,74.03
2019-04-07T05:06:13.384Z,73.86
2019-04-07T05:08:44.365Z,73.34
2019-04-07T05:11:14.751Z,72.41
2019-04-07T05:13:44.999Z,71.99
2019-04-07T05:16:15.262Z,72.10
2019-04-07T05:18:46.683Z,71.79
2019-04-07T05:21:16.982Z,71.75
2019-04-07T05:23:47.310Z,71.39
2019-04-07T05:26:17.487Z,71.19
2019-04-07T05:28:48.317Z,70.63
2019-04-07T05:31:18.771Z,70.23
2019-04-07T05:33:49.026Z,70.19
2019-04-07T05:36:20.267Z,69.67
2019-04-07T05:38:50.879Z,68.49
2019-04-07T05:41:21.980Z,68.38
2019-04-07T05:43:52.491Z,67.92
2019-04-07T05:46:22.868Z,67.82
2019-04-07T05:48:53.163Z,67.55
2019-04-07T05:51:23.693Z,66.82
2019-04-07T05:53:54.278Z,66.38
2019-04-07T05:56:28.111Z,66.08
2019-04-07T05:58:57.122Z,65.79
2019-04-07T06:01:27.419Z,65.79
2019-04-07T06:03:57.787Z,64.50
2019-04-07T06:06:27.998Z,64.99
2019-04-07T06:08:58.683Z,64.62
2019-04-07T06:11:31.276Z,63.90
2019-04-07T06:14:00.890Z,63.90
2019-04-07T06:16:32.198Z,63.19
2019-04-07T06:19:06.969Z,63.04
2019-04-07T06:21:34.609Z,61.83
2019-04-07T06:24:04.945Z,61.43
2019-04-07T06:26:36.997Z,61.97
2019-04-07T06:29:07.624Z,62.00
2019-04-07T06:31:38.319Z,62.05
2019-04-07T06:34:10.496Z,61.05
2019-04-07T06:36:41.016Z,61.35
2019-04-07T06:39:11.267Z,60.98
2019-04-07T06:41:42.210Z,60.85
2019-04-07T06:44:18.447Z,60.20
2019-04-07T06:47:08.526Z,59.82
2019-04-07T06:50:14.165Z,59.17
2019-04-07T06:53:00.941Z,58.41
2019-04-07T06:55:53.987Z,58.12
2019-04-07T06:58:59.425Z,57.87
2019-04-07T07:01:47.691Z,57.26
2019-04-07T07:04:30.093Z,57.19
2019-04-07T07:07:31.418Z,55.52
2019-04-07T07:10:17.038Z,54.33
2019-04-07T07:13:28.518Z,55.23
2019-04-07T07:16:05.184Z,56.30
2019-04-07T07:18:54.723Z,55.65
2019-04-07T07:21:48.972Z,55.70
2019-04-07T07:24:24.412Z,55.35
2019-04-07T07:26:51.184Z,54.45
2019-04-07T07:29:21.425Z,54.20
2019-04-07T07:31:53.068Z,53.97
2019-04-07T07:34:23.940Z,54.47
2019-04-07T07:36:56.573Z,54.59
2019-04-07T07:39:27.145Z,53.48
2019-04-07T07:41:58.337Z,53.78
2019-04-07T07:44:28.949Z,54.36
2019-04-07T07:46:59.348Z,52.59
2019-04-07T07:49:33.506Z,52.67
2019-04-07T07:52:02.656Z,52.16
2019-04-07T07:54:33.452Z,52.60
2019-04-07T07:57:03.700Z,51.59
2019-04-07T07:59:38.069Z,52.57
2019-04-07T08:02:06.429Z,52.50
2019-04-07T08:04:36.736Z,51.31
2019-04-07T08:07:09.021Z,51.84
2019-04-07T08:09:40.273Z,51.83
2019-04-07T08:12:10.630Z,52.59
2019-04-07T08:14:41.465Z,51.22
2019-04-07T08:17:12.283Z,50.57
2019-04-07T08:19:45.356Z,51.68
2019-04-07T08:22:27.498Z,51.06
2019-04-07T08:24:51.929Z,49.74
2019-04-07T08:27:21.649Z,50.19
2019-04-07T08:29:53.833Z,48.70
2019-04-07T08:32:29.647Z,49.61
2019-04-07T08:35:02.727Z,47.84
2019-04-07T08:37:30.794Z,46.45
2019-04-07T08:40:04.304Z,47.65
2019-04-07T08:42:32.953Z,46.72
2019-04-07T08:45:03.448Z,47.52
2019-04-07T08:47:34.522Z,44.49
2019-04-07T08:50:05.092Z,46.53
2019-04-07T08:52:38.483Z,47.18
2019-04-07T08:55:08.007Z,46.50
2019-04-07T08:57:38.305Z,46.67
2019-04-07T09:00:15.044Z,47.41
2019-04-07T09:02:43.855Z,45.97
2019-04-07T09:05:14.618Z,46.31
2019-04-07T09:07:44.956Z,43.50
2019-04-07T09:10:21.790Z,44.20
2019-04-07T09:12:52.359Z,43.81
2019-04-07T09:15:30.081Z,42.96
2019-04-07T09:18:12.720Z,44.05
2019-04-07T09:20:49.272Z,43.29
2019-04-07T09:23:28.350Z,42.73
2019-04-07T09:26:05.566Z,42.88
2019-04-07T09:29:12.923Z,42.89
2019-04-07T09:31:50.908Z,42.50
2019-04-07T09:34:38.138Z,39.95
2019-04-07T09:37:31.095Z,40.23
2019-04-07T09:40:09.359Z,40.04
2019-04-07T09:43:00.004Z,37.10
2019-04-07T09:45:38.561Z,35.49
2019-04-07T09:48:22.915Z,37.51
2019-04-07T09:51:16.474Z,35.24
2019-04-07T09:54:24.012Z,36.63
2019-04-07T09:57:11.374Z,34.92
2019-04-07T09:59:56.501Z,36.22
2019-04-07T10:02:37.270Z,35.78
2019-04-07T10:05:21.426Z,35.63
2019-04-07T10:08:13.962Z,34.29
2019-04-07T10:11:06.046Z,33.48
2019-04-07T10:13:53.720Z,33.89
2019-04-07T10:16:43.847Z,35.82
2019-04-07T10:19:32.767Z,38.79
2019-04-07T10:22:28.763Z,39.88
2019-04-07T10:25:09.189Z,40.39
2019-04-07T10:27:55.509Z,39.95
2019-04-07T10:30:54.080Z,39.65
2019-04-07T10:33:42.742Z,38.12
2019-04-07T10:36:34.975Z,38.14
2019-04-07T10:39:29.257Z,35.50
2019-04-07T10:42:13.740Z,35.57
2019-04-07T10:45:01.267Z,34.13
2019-04-07T10:47:56.720Z,34.20
2019-04-07T10:51:04.531Z,35.76
2019-04-07T10:53:57.211Z,35.55
2019-04-07T10:56:37.598Z,33.26
2019-04-07T10:59:26.825Z,35.16
2019-04-07T11:02:04.078Z,36.86
2019-04-07T11:04:55.195Z,37.84
2019-04-07T11:07:42.079Z,37.89
2019-04-07T11:10:39.443Z,37.34
2019-04-07T11:13:38.724Z,38.77
2019-04-07T11:16:14.893Z,36.54
2019-04-07T11:19:07.799Z,37.54
2019-04-07T11:21:45.701Z,37.48
2019-04-07T11:24:36.981Z,36.92
2019-04-07T11:27:33.704Z,37.04
2019-04-07T11:30:33.232Z,38.14
2019-04-07T11:33:40.416Z,38.25
2019-04-07T11:36:23.462Z,35.40
2019-04-07T11:39:11.953Z,35.92
2019-04-07T11:41:53.506Z,36.25
2019-04-07T11:44:42.672Z,36.43
2019-04-07T11:47:21.220Z,36.72
2019-04-07T11:50:07.161Z,36.18
2019-04-07T11:52:56.318Z,36.33
2019-04-07T11:55:44.274Z,35.19
2019-04-07T11:58:31.356Z,35.71
2019-04-07T12:01:15.639Z,34.77
2019-04-07T12:03:55.088Z,35.51
2019-04-07T12:06:36.476Z,35.11
2019-04-07T12:09:24.563Z,35.90
2019-04-07T12:12:12.676Z,34.39
2019-04-07T12:15:08.474Z,35.58
2019-04-07T12:17:56.250Z,35.53
2019-04-07T12:20:46.182Z,35.52
2019-04-07T12:23:34.004Z,36.72
2019-04-07T12:26:17.089Z,35.87
2019-04-07T12:28:56.021Z,35.18
2019-04-07T12:31:48.676Z,36.90
2019-04-07T12:34:31.034Z,34.78
2019-04-07T12:37:14.408Z,34.90
2019-04-07T12:40:04.331Z,34.89
2019-04-07T12:42:44.425Z,36.89
2019-04-07T12:45:37.042Z,36.40
2019-04-07T12:48:14.522Z,35.60
2019-04-07T12:50:54.110Z,36.38
2019-04-07T12:53:36.044Z,35.91
2019-04-07T12:56:19.441Z,35.54
2019-04-07T12:58:57.486Z,35.21
2019-04-07T13:01:49.213Z,35.40
2019-04-07T13:04:32.196Z,36.00
2019-04-07T13:07:21.789Z,34.77
2019-04-07T13:10:02.675Z,34.69
2019-04-07T13:12:55.826Z,36.00
2019-04-07T13:15:47.525Z,35.32
2019-04-07T13:18:38.955Z,35.15
2019-04-07T13:21:44.682Z,34.99
2019-04-07T13:24:35.180Z,35.21
2019-04-07T13:27:29.702Z,34.82
2019-04-07T13:30:17.053Z,34.97
2019-04-07T13:33:05.583Z,34.83
2019-04-07T13:35:55.110Z,35.41
2019-04-07T13:38:51.234Z,36.17
2019-04-07T13:41:38.577Z,34.94
2019-04-07T13:44:16.161Z,34.91
2019-04-07T13:46:59.243Z,35.27
2019-04-07T13:49:48.351Z,35.08
2019-04-07T13:52:37.144Z,34.60
2019-04-07T13:55:21.956Z,35.22
2019-04-07T13:58:11.977Z,35.02
2019-04-07T14:00:50.596Z,34.77
2019-04-07T14:03:50.396Z,34.27
2019-04-07T14:06:29.504Z,35.23
2019-04-07T14:09:18.015Z,34.98
2019-04-07T14:12:10.629Z,35.11
2019-04-07T14:14:57.053Z,34.84
2019-04-07T14:18:05.843Z,34.91
2019-04-07T14:21:01.082Z,34.40
2019-04-07T14:23:55.716Z,35.59
2019-04-07T14:26:43.473Z,35.19
2019-04-07T14:29:39.482Z,35.56
2019-04-07T14:32:49.412Z,34.85
2019-04-07T14:35:47.698Z,35.03
2019-04-07T14:38:35.618Z,33.63
2019-04-07T14:41:13.878Z,33.29
2019-04-07T14:44:06.967Z,33.60
2019-04-07T14:46:58.011Z,33.84
2019-04-07T14:49:46.171Z,33.01
2019-04-07T14:52:33.191Z,34.02
2019-04-07T14:55:22.662Z,35.05
2019-04-07T14:58:15.261Z,35.33
2019-04-07T15:01:06.722Z,34.69
2019-04-07T15:03:36.659Z,34.34
2019-04-07T15:06:07.573Z,33.97
2019-04-07T15:08:49.748Z,34.48
2019-04-07T15:11:33.761Z,33.84
2019-04-07T15:14:04.518Z,33.75
2019-04-07T15:16:35.106Z,34.46
2019-04-07T15:19:05.722Z,35.78
2019-04-07T15:21:36.295Z,34.45
2019-04-07T15:24:08.482Z,34.65
2019-04-07T15:26:39.000Z,34.59
2019-04-07T15:29:10.785Z,33.69
2019-04-07T15:31:41.878Z,33.36
2019-04-07T15:34:14.093Z,33.50
2019-04-07T15:36:48.000Z,33.37
2019-04-07T15:39:18.209Z,33.78
2019-04-07T15:41:49.502Z,33.62
2019-04-07T15:44:20.718Z,34.44
2019-04-07T15:46:53.253Z,33.82
2019-04-07T15:49:26.118Z,34.29
2019-04-07T15:51:55.164Z,35.76
2019-04-07T15:54:25.512Z,34.79
2019-04-07T15:56:57.955Z,34.77
2019-04-07T15:59:29.746Z,35.84
2019-04-07T16:02:01.258Z,35.40
2019-04-07T16:04:31.964Z,35.70
2019-04-07T16:07:06.373Z,34.97
2019-04-07T16:09:48.753Z,35.02
2019-04-07T16:12:08.718Z,35.42
2019-04-07T16:14:40.281Z,35.00
2019-04-07T16:17:12.071Z,34.92
2019-04-07T16:19:44.390Z,33.99
2019-04-07T16:22:15.489Z,34.32
2019-04-07T16:24:46.304Z,34.49
2019-04-07T16:27:17.265Z,34.84
2019-04-07T16:29:47.935Z,34.83
2019-04-07T16:32:19.881Z,34.06
2019-04-07T16:34:53.065Z,34.35
2019-04-07T16:37:29.089Z,33.88
2019-04-07T16:39:58.731Z,34.51
2019-04-07T16:42:29.787Z,34.77
2019-04-07T16:45:01.827Z,33.80
2019-04-07T16:47:34.679Z,34.16
2019-04-07T16:50:04.300Z,34.47
2019-04-07T16:52:35.254Z,34.43
2019-04-07T16:55:07.062Z,34.62
2019-04-07T16:57:38.613Z,34.31
2019-04-07T17:00:14.375Z,35.10
2019-04-07T17:02:46.077Z,35.33
2019-04-07T17:05:19.201Z,35.22
2019-04-07T17:07:48.495Z,35.13
2019-04-07T17:10:19.724Z,34.92
2019-04-07T17:12:50.087Z,35.30
2019-04-07T17:15:21.172Z,35.26
2019-04-07T17:17:53.290Z,35.77
2019-04-07T17:20:27.882Z,36.48
2019-04-07T17:22:56.852Z,35.39
2019-04-07T17:25:27.261Z,35.45
2019-04-07T17:28:02.454Z,35.81
2019-04-07T17:30:31.299Z,35.96
2019-04-07T17:33:03.234Z,35.83
2019-04-07T17:35:33.698Z,35.49
2019-04-07T17:38:06.943Z,35.44
2019-04-07T17:40:45.225Z,35.15
2019-04-07T17:43:39.211Z,35.67
2019-04-07T17:46:15.024Z,36.11
2019-04-07T17:48:56.769Z,35.45
2019-04-07T17:51:41.080Z,35.98
2019-04-07T17:54:21.470Z,35.76
2019-04-07T17:57:12.286Z,36.71
2019-04-07T18:00:04.675Z,36.70
2019-04-07T18:03:05.193Z,36.39
2019-04-07T18:06:03.763Z,37.37
2019-04-07T18:09:04.655Z,37.68
2019-04-07T18:11:42.971Z,37.71
2019-04-07T18:14:28.701Z,39.14
2019-04-07T18:17:16.936Z,39.53
2019-04-07T18:20:21.161Z,39.59
2019-04-07T18:23:05.921Z,39.67
2019-04-07T18:25:45.939Z,39.32
2019-04-07T18:28:34.268Z,39.19
2019-04-07T18:31:26.344Z,39.69
2019-04-07T18:34:15.540Z,39.93
2019-04-07T18:37:00.038Z,40.83
2019-04-07T18:39:44.946Z,40.34
2019-04-07T18:42:33.444Z,40.82
2019-04-07T18:45:12.717Z,40.86
2019-04-07T18:48:09.262Z,41.46
2019-04-07T18:50:49.979Z,41.56
2019-04-07T18:53:38.625Z,42.38
2019-04-07T18:56:21.379Z,42.75
2019-04-07T18:59:02.327Z,42.36
2019-04-07T19:01:49.953Z,42.96
2019-04-07T19:04:51.110Z,48.84
2019-04-07T19:07:48.546Z,49.29
2019-04-07T19:10:30.043Z,49.61
2019-04-07T19:13:27.241Z,50.25
2019-04-07T19:16:25.030Z,50.23
2019-04-07T19:19:29.764Z,51.06
2019-04-07T19:22:20.090Z,52.03
2019-04-07T19:25:17.181Z,54.03
2019-04-07T19:28:01.015Z,55.05
2019-04-07T19:30:55.665Z,55.21
2019-04-07T19:33:38.048Z,54.33
2019-04-07T19:36:33.035Z,53.78
2019-04-07T19:39:42.533Z,54.25
2019-04-07T19:42:30.594Z,53.77
2019-04-07T19:45:11.188Z,53.67
2019-04-07T19:47:59.365Z,53.25
2019-04-07T19:50:58.948Z,53.42
2019-04-07T19:53:49.302Z,53.91
2019-04-07T19:56:47.887Z,54.70
2019-04-07T19:59:48.834Z,55.24
2019-04-07T20:02:39.177Z,55.62
2019-04-07T20:05:19.758Z,55.36
2019-04-07T20:08:11.989Z,55.66
2019-04-07T20:10:51.789Z,55.53
2019-04-07T20:13:50.724Z,55.62
2019-04-07T20:16:31.202Z,55.92
2019-04-07T20:19:41.113Z,56.26
2019-04-07T20:22:35.753Z,56.08
2019-04-07T20:25:24.565Z,56.16
2019-04-07T20:28:05.192Z,56.35
2019-04-07T20:30:48.574Z,55.22
2019-04-07T20:33:40.017Z,54.77
2019-04-07T20:36:29.332Z,54.26
2019-04-07T20:39:17.468Z,54.17
2019-04-07T20:41:59.678Z,54.71
2019-04-07T20:44:41.143Z,55.25
2019-04-07T20:47:42.821Z,55.39
2019-04-07T20:50:35.551Z,55.50
2019-04-07T20:53:24.067Z,56.10
2019-04-07T20:56:04.514Z,56.14
2019-04-07T20:58:57.970Z,56.61
2019-04-07T21:01:53.979Z,56.52
2019-04-07T21:04:33.190Z,56.07
2019-04-07T21:07:23.421Z,56.27
2019-04-07T21:10:17.891Z,56.29
2019-04-07T21:13:04.745Z,56.41
2019-04-07T21:15:53.099Z,57.55
2019-04-07T21:18:41.217Z,58.68
2019-04-07T21:21:34.483Z,59.29
2019-04-07T21:24:33.530Z,58.95
2019-04-07T21:27:12.241Z,59.12
2019-04-07T21:29:53.724Z,59.66
2019-04-07T21:32:34.048Z,59.88
2019-04-07T21:35:35.083Z,59.88
2019-04-07T21:38:23.195Z,59.28
2019-04-07T21:41:12.236Z,59.10
2019-04-07T21:43:59.674Z,59.88
2019-04-07T21:46:40.938Z,60.07
2019-04-07T21:49:23.220Z,60.61
2019-04-07T21:51:58.970Z,60.71
2019-04-07T21:54:40.891Z,60.66
2019-04-07T21:57:33.109Z,60.33
2019-04-07T22:00:29.132Z,60.36
2019-04-07T22:03:25.423Z,59.70
2019-04-07T22:06:17.780Z,59.39
2019-04-07T22:08:59.100Z,59.77
2019-04-07T22:11:30.457Z,60.22
2019-04-07T22:14:04.124Z,60.11
2019-04-07T22:16:34.235Z,60.52
2019-04-07T22:19:09.371Z,60.44
2019-04-07T22:21:36.807Z,59.76
2019-04-07T22:24:07.081Z,60.20
2019-04-07T22:26:37.434Z,59.36
2019-04-07T22:29:07.777Z,60.01
2019-04-07T22:31:47.853Z,59.17
2019-04-07T22:34:18.643Z,59.39
2019-04-07T22:36:49.681Z,59.51
2019-04-07T22:39:20.570Z,59.68
2019-04-07T22:41:50.829Z,60.13
2019-04-07T22:44:22.233Z,60.24
2019-04-07T22:46:53.128Z,60.52
2019-04-07T22:49:23.504Z,61.07
2019-04-07T22:51:55.447Z,61.73
2019-04-07T22:54:29.505Z,61.39
2019-04-07T22:56:57.845Z,61.08
2019-04-07T22:59:28.146Z,61.61
2019-04-07T23:01:59.775Z,62.42
2019-04-07T23:04:30.190Z,62.24
2019-04-07T23:07:01.187Z,62.50
2019-04-07T23:09:31.603Z,62.47
2019-04-07T23:12:03.264Z,62.49
2019-04-07T23:14:34.227Z,62.49
2019-04-07T23:17:04.577Z,62.09
2019-04-07T23:19:34.842Z,62.34
2019-04-07T23:22:05.449Z,62.01
2019-04-07T23:24:36.719Z,62.15
2019-04-07T23:27:08.204Z,62.55
2019-04-07T23:29:38.786Z,63.44
2019-04-07T23:32:09.662Z,63.55
2019-04-07T23:34:39.937Z,63.50
2019-04-07T23:37:10.938Z,64.00
2019-04-07T23:39:41.900Z,63.24
2019-04-07T23:42:12.599Z,63.34
2019-04-07T23:44:43.667Z,63.25
2019-04-07T23:47:14.061Z,63.40
2019-04-07T23:49:44.745Z,63.27
2019-04-07T23:52:14.939Z,63.50
2019-04-07T23:54:45.955Z,63.29
2019-04-07T23:57:17.738Z,63.52
2019-04-07T23:59:48.593Z,63.01
